Time;durP1;ratioP1;P1;durP2;ratioP2;P2;SDS_P1;SDS_P2;PMS_P1;PMS_P2;Temp;Humidity;BMP_temperature;BMP_pressure;BME280_temperature;BME280_humidity;BME280_pressure;Samples;Min_cycle;Max_cycle;Signal;HPM_P1;HPM_P2
2024/04/08 00:01:02;;;;;;;5.57;3.97;;;13.80;88.00;;;;;;4922182;29;20181;-86
2024/04/08 00:03:27;;;;;;;6.00;4.30;;;13.80;88.00;;;;;;4922131;29;20559;-86
2024/04/08 00:05:53;;;;;;;8.18;3.78;;;13.80;88.20;;;;;;4921868;29;20312;-87
2024/04/08 00:08:19;;;;;;;7.95;3.63;;;13.70;88.60;;;;;;4923942;29;20177;-86
2024/04/08 00:10:44;;;;;;;8.57;4.10;;;13.70;88.90;;;;;;4924518;29;20181;-86
2024/04/08 00:13:10;;;;;;;7.97;4.00;;;13.60;89.10;;;;;;4923948;29;20237;-87
2024/04/08 00:15:35;;;;;;;4.97;3.60;;;13.60;89.20;;;;;;4923869;29;20259;-88
2024/04/08 00:18:01;;;;;;;7.03;3.50;;;13.60;89.50;;;;;;4922222;29;20188;-86
2024/04/08 00:20:26;;;;;;;5.60;3.60;;;13.50;89.70;;;;;;4923947;29;20199;-86
2024/04/08 00:22:52;;;;;;;8.17;3.83;;;13.50;89.80;;;;;;4921632;29;20632;-86
2024/04/08 00:25:18;;;;;;;4.27;3.53;;;13.50;89.90;;;;;;4921225;29;20200;-86
2024/04/08 00:27:44;;;;;;;7.13;3.13;;;13.50;90.20;;;;;;4923037;29;20190;-88
2024/04/08 00:30:10;;;;;;;7.10;3.57;;;13.40;90.60;;;;;;4922139;29;20176;-86
2024/04/08 00:32:35;;;;;;;6.80;3.93;;;13.30;90.80;;;;;;4921409;29;20566;-86
2024/04/08 00:35:02;;;;;;;4.53;3.10;;;13.40;90.80;;;;;;4923394;29;20191;-86
2024/04/08 00:37:27;;;;;;;5.87;3.57;;;13.30;90.90;;;;;;4923784;29;20184;-86
2024/04/08 00:39:53;;;;;;;4.90;3.17;;;13.30;91.10;;;;;;4922160;29;20761;-87
2024/04/08 00:42:18;;;;;;;8.10;3.40;;;13.30;91.20;;;;;;4921593;29;20185;-87
2024/04/08 00:44:44;;;;;;;9.37;3.37;;;13.30;91.10;;;;;;4923526;29;20615;-87
2024/04/08 00:47:11;;;;;;;7.20;3.60;;;13.30;91.10;;;;;;4923053;29;20180;-88
2024/04/08 00:49:39;;;;;;;4.97;3.13;;;13.30;91.20;;;;;;4923974;29;20320;-88
2024/04/08 00:52:06;;;;;;;3.97;3.50;;;13.30;91.30;;;;;;4923082;29;20173;-87
2024/04/08 00:54:32;;;;;;;8.70;3.30;;;13.20;91.40;;;;;;4923590;29;20695;-87
2024/04/08 00:57:02;;;;;;;3.60;3.00;;;13.20;91.50;;;;;;4921907;29;20211;-88
2024/04/08 00:59:28;;;;;;;8.83;3.17;;;13.20;91.70;;;;;;4921527;29;20177;-88
2024/04/08 01:01:53;;;;;;;5.97;3.00;;;13.20;91.80;;;;;;4920703;29;20240;-86
2024/04/08 01:04:19;;;;;;;4.97;3.10;;;13.20;91.70;;;;;;4923142;29;20192;-86
2024/04/08 01:06:45;;;;;;;6.87;3.27;;;13.20;91.80;;;;;;4922008;29;20180;-87
2024/04/08 01:09:11;;;;;;;4.93;3.53;;;13.20;92.00;;;;;;4923182;29;20173;-86
2024/04/08 01:11:36;;;;;;;7.43;3.63;;;13.10;92.10;;;;;;4921879;29;20200;-88
2024/04/08 01:14:02;;;;;;;7.80;3.60;;;13.10;92.10;;;;;;4923036;29;20224;-86
2024/04/08 01:16:28;;;;;;;5.07;3.47;;;13.10;92.20;;;;;;4923068;29;20268;-86
2024/04/08 01:18:53;;;;;;;6.47;3.53;;;13.20;92.20;;;;;;4923593;29;20173;-87
2024/04/08 01:21:19;;;;;;;7.37;3.73;;;13.20;92.00;;;;;;4923717;29;20649;-86
2024/04/08 01:23:44;;;;;;;7.57;3.40;;;13.20;92.10;;;;;;4923382;29;20205;-87
2024/04/08 01:26:10;;;;;;;7.43;3.37;;;13.20;92.10;;;;;;4921566;29;20215;-88
2024/04/08 01:28:38;;;;;;;9.33;3.30;;;13.20;92.20;;;;;;4921643;29;20173;-88
2024/04/08 01:31:04;;;;;;;4.20;3.40;;;13.20;92.20;;;;;;4923506;29;20181;-88
2024/04/08 01:33:30;;;;;;;5.43;3.23;;;13.20;92.30;;;;;;4923039;29;20201;-88
2024/04/08 01:36:00;;;;;;;5.83;3.33;;;13.20;92.30;;;;;;4921974;29;20573;-88
2024/04/08 01:38:28;;;;;;;8.17;3.97;;;13.20;92.20;;;;;;4923101;29;20180;-88
2024/04/08 01:40:54;;;;;;;3.93;3.57;;;13.20;92.20;;;;;;4923345;29;20191;-88
2024/04/08 01:43:20;;;;;;;6.37;4.00;;;13.20;92.10;;;;;;4923210;29;20208;-87
2024/04/08 01:45:45;;;;;;;5.80;3.70;;;13.10;92.20;;;;;;4922964;29;20563;-88
2024/04/08 01:48:11;;;;;;;6.47;3.63;;;13.20;92.20;;;;;;4923430;29;20188;-87
2024/04/08 01:50:36;;;;;;;5.50;3.43;;;13.30;92.20;;;;;;4922051;29;20196;-88
2024/04/08 01:53:02;;;;;;;6.55;3.88;;;13.20;92.00;;;;;;4923706;29;20196;-86
2024/04/08 01:55:27;;;;;;;5.80;4.00;;;13.20;92.00;;;;;;4921712;29;20274;-88
2024/04/08 01:57:53;;;;;;;10.63;4.47;;;13.20;92.00;;;;;;4922915;29;20199;-87
2024/04/08 02:00:19;;;;;;;5.60;4.13;;;13.30;92.10;;;;;;4923164;29;20180;-88
2024/04/08 02:02:45;;;;;;;7.73;4.03;;;13.20;92.10;;;;;;4921518;29;20208;-87
2024/04/08 02:05:10;;;;;;;5.87;4.17;;;13.20;92.20;;;;;;4921466;29;20304;-87
2024/04/08 02:07:37;;;;;;;7.30;4.40;;;13.20;92.20;;;;;;4922713;29;20658;-88
2024/04/08 02:10:02;;;;;;;7.33;4.20;;;13.20;92.30;;;;;;4921724;29;20271;-88
2024/04/08 02:12:28;;;;;;;8.13;5.07;;;13.10;92.40;;;;;;4923779;29;20223;-88
2024/04/08 02:14:53;;;;;;;7.23;4.30;;;13.10;92.40;;;;;;4924918;29;20199;-88
2024/04/08 02:17:19;;;;;;;10.17;4.07;;;13.10;92.60;;;;;;4926820;29;20180;-88
2024/04/08 02:19:45;;;;;;;7.57;4.13;;;13.10;92.70;;;;;;4927061;29;20625;-86
2024/04/08 02:22:10;;;;;;;5.93;3.73;;;13.00;93.10;;;;;;4926996;29;20185;-86
2024/04/08 02:24:36;;;;;;;6.67;4.10;;;13.00;93.20;;;;;;4925111;29;20289;-87
2024/04/08 02:27:02;;;;;;;5.20;3.80;;;13.00;93.30;;;;;;4927547;29;20205;-86
2024/04/08 02:29:28;;;;;;;9.33;3.87;;;13.00;93.40;;;;;;4924520;29;20180;-88
2024/04/08 02:31:53;;;;;;;5.90;4.23;;;12.90;93.40;;;;;;4926216;29;20610;-88
2024/04/08 02:34:19;;;;;;;5.27;3.77;;;13.00;93.50;;;;;;4926467;29;20219;-88
2024/04/08 02:36:45;;;;;;;8.83;3.97;;;12.90;93.60;;;;;;4925258;29;20539;-88
2024/04/08 02:39:11;;;;;;;4.43;4.03;;;12.90;93.60;;;;;;4926901;29;20181;-87
2024/04/08 02:41:36;;;;;;;5.63;3.60;;;12.80;93.80;;;;;;4927047;29;20181;-88
2024/04/08 02:44:02;;;;;;;10.70;4.00;;;12.80;93.90;;;;;;4926590;29;20200;-87
2024/04/08 02:46:27;;;;;;;5.97;4.00;;;12.90;94.00;;;;;;4927181;29;20223;-87
2024/04/08 02:48:53;;;;;;;5.00;3.90;;;12.90;94.00;;;;;;4925377;29;20176;-88
2024/04/08 02:51:19;;;;;;;8.57;4.30;;;12.90;94.00;;;;;;4924883;29;20187;-86
2024/04/08 02:53:44;;;;;;;8.70;4.03;;;12.90;94.00;;;;;;4924266;29;20256;-88
2024/04/08 02:56:10;;;;;;;6.00;3.90;;;12.90;94.00;;;;;;4924282;29;20193;-88
2024/04/08 02:58:35;;;;;;;5.57;3.80;;;12.90;94.00;;;;;;4924377;29;20187;-88
2024/04/08 03:01:11;;;;;;;6.13;4.27;;;13.00;94.00;;;;;;4926274;29;20181;-88
2024/04/08 03:03:37;;;;;;;5.37;4.53;;;12.90;93.90;;;;;;4926448;29;20264;-86
2024/04/08 03:06:07;;;;;;;5.93;4.03;;;12.90;93.90;;;;;;4924994;29;20223;-88
2024/04/08 03:08:35;;;;;;;7.70;4.23;;;12.80;93.90;;;;;;4924668;29;20183;-88
2024/04/08 03:11:01;;;;;;;7.90;4.70;;;12.90;94.10;;;;;;4925525;29;20179;-88
2024/04/08 03:13:27;;;;;;;5.80;3.77;;;12.80;94.10;;;;;;4926204;29;20193;-86
2024/04/08 03:15:56;;;;;;;7.83;3.90;;;12.80;94.10;;;;;;4926622;29;20177;-88
2024/04/08 03:18:22;;;;;;;8.40;4.17;;;12.80;94.20;;;;;;4925315;29;20180;-88
2024/04/08 03:20:54;;;;;;;7.43;4.07;;;12.80;94.30;;;;;;4926582;29;20232;-88
2024/04/08 03:23:21;;;;;;;9.07;3.80;;;12.80;94.30;;;;;;4925060;29;20264;-88
2024/04/08 03:25:46;;;;;;;9.10;4.00;;;12.80;94.40;;;;;;4922743;29;20201;-89
2024/04/08 03:28:12;;;;;;;6.60;3.80;;;12.80;94.50;;;;;;4924809;29;20291;-87
2024/04/08 03:30:37;;;;;;;5.27;3.87;;;12.80;94.40;;;;;;4924824;29;20180;-88
2024/04/08 03:33:03;;;;;;;7.47;4.37;;;12.80;94.50;;;;;;4925559;29;20197;-87
2024/04/08 03:35:29;;;;;;;8.80;4.10;;;12.80;94.60;;;;;;4925106;29;20188;-86
2024/04/08 03:37:54;;;;;;;5.53;3.53;;;12.80;94.60;;;;;;4926203;29;20181;-88
2024/04/08 03:40:23;;;;;;;7.57;3.83;;;12.80;94.60;;;;;;4925609;29;20185;-87
2024/04/08 03:42:49;;;;;;;4.50;3.70;;;12.70;94.40;;;;;;4925889;29;20752;-87
2024/04/08 03:45:15;;;;;;;7.80;3.83;;;12.70;94.30;;;;;;4925705;29;20208;-86
2024/04/08 03:47:40;;;;;;;8.77;4.07;;;12.80;94.20;;;;;;4924804;29;20185;-87
2024/04/08 03:50:06;;;;;;;6.73;4.60;;;12.70;94.20;;;;;;4925422;29;20185;-88
2024/04/08 03:52:31;;;;;;;8.43;4.00;;;12.70;94.30;;;;;;4925124;29;20200;-88
2024/04/08 03:54:57;;;;;;;4.40;3.80;;;12.70;94.30;;;;;;4924089;29;20181;-87
2024/04/08 03:57:23;;;;;;;4.57;3.97;;;12.70;94.30;;;;;;4924403;29;20252;-87
2024/04/08 03:59:48;;;;;;;8.97;4.30;;;12.70;94.30;;;;;;4925195;29;20653;-87
2024/04/08 04:02:14;;;;;;;6.20;3.80;;;12.60;94.30;;;;;;4925473;29;20240;-87
2024/04/08 04:04:39;;;;;;;6.97;4.27;;;12.60;94.30;;;;;;4925115;29;20272;-88
2024/04/08 04:07:05;;;;;;;8.03;4.20;;;12.60;94.30;;;;;;4925433;29;20172;-87
2024/04/08 04:09:30;;;;;;;5.27;4.27;;;12.60;94.20;;;;;;4925365;29;20209;-88
2024/04/08 04:11:56;;;;;;;7.07;3.93;;;12.70;94.20;;;;;;4925056;29;20172;-87
2024/04/08 04:14:21;;;;;;;6.23;4.23;;;12.70;94.20;;;;;;4925051;29;20204;-88
2024/04/08 04:16:51;;;;;;;5.27;4.03;;;12.70;94.10;;;;;;4924836;29;20252;-87
2024/04/08 04:19:16;;;;;;;6.23;4.33;;;12.70;94.00;;;;;;4924495;29;20177;-87
2024/04/08 04:21:42;;;;;;;10.43;4.13;;;12.70;94.00;;;;;;4923171;29;20185;-88
2024/04/08 04:24:07;;;;;;;5.53;3.63;;;12.80;94.00;;;;;;4923072;29;20354;-86
2024/04/08 04:26:33;;;;;;;6.50;4.20;;;12.70;93.90;;;;;;4924617;29;20204;-88
2024/04/08 04:28:58;;;;;;;4.70;4.00;;;12.70;93.90;;;;;;4924766;29;20173;-87
2024/04/08 04:31:24;;;;;;;9.73;4.47;;;12.60;93.80;;;;;;4924763;29;20187;-88
2024/04/08 04:33:49;;;;;;;7.87;4.07;;;12.60;93.80;;;;;;4924606;29;20193;-87
2024/04/08 04:36:15;;;;;;;8.00;4.30;;;12.60;93.80;;;;;;4925085;29;20185;-88
2024/04/08 04:38:40;;;;;;;4.63;3.90;;;12.70;93.80;;;;;;4924356;29;20213;-88
2024/04/08 04:41:07;;;;;;;10.93;4.77;;;12.70;93.90;;;;;;4922630;29;20211;-86
2024/04/08 04:43:33;;;;;;;9.00;4.60;;;13.00;93.90;;;;;;4924088;29;20204;-86
2024/04/08 04:45:58;;;;;;;6.20;4.13;;;13.00;93.50;;;;;;4924400;29;20268;-88
2024/04/08 04:48:25;;;;;;;6.73;4.40;;;12.90;93.50;;;;;;4924585;29;20314;-88
2024/04/08 04:50:51;;;;;;;13.47;5.20;;;13.00;93.40;;;;;;4924493;29;20187;-87
2024/04/08 04:53:16;;;;;;;7.20;4.57;;;13.10;93.30;;;;;;4924262;29;20193;-88
2024/04/08 04:55:49;;;;;;;6.30;4.87;;;13.10;92.90;;;;;;4923194;29;20188;-87
2024/04/08 04:58:14;;;;;;;7.57;4.67;;;13.10;92.70;;;;;;4923061;29;20188;-87
2024/04/08 05:00:40;;;;;;;7.23;5.33;;;13.10;92.60;;;;;;4924179;29;20267;-87
2024/04/08 05:03:06;;;;;;;6.27;4.57;;;13.10;92.60;;;;;;4924429;29;20256;-88
2024/04/08 05:05:31;;;;;;;14.43;4.53;;;13.10;92.60;;;;;;4924442;29;20204;-86
2024/04/08 05:07:57;;;;;;;6.17;5.00;;;13.10;92.40;;;;;;4923792;29;20324;-87
2024/04/08 05:10:22;;;;;;;5.57;4.97;;;13.10;92.40;;;;;;4924059;29;20201;-87
2024/04/08 05:12:48;;;;;;;8.10;4.63;;;13.20;92.40;;;;;;4923019;29;20586;-87
2024/04/08 05:15:13;;;;;;;6.32;5.05;;;13.20;92.20;;;;;;4922826;29;20177;-88
2024/04/08 05:17:39;;;;;;;6.23;5.00;;;13.30;92.10;;;;;;4924211;29;20187;-87
2024/04/08 05:20:09;;;;;;;7.17;5.10;;;13.10;91.90;;;;;;4924539;29;20605;-86
2024/04/08 05:22:35;;;;;;;10.03;6.10;;;13.10;92.10;;;;;;4923733;29;20193;-88
2024/04/08 05:25:01;;;;;;;8.43;6.27;;;13.20;92.20;;;;;;4922561;29;20207;-87
2024/04/08 05:27:26;;;;;;;9.48;5.82;;;13.30;92.00;;;;;;4922497;29;20173;-87
2024/04/08 05:29:52;;;;;;;8.13;5.70;;;13.30;91.90;;;;;;4922618;29;20196;-87
2024/04/08 05:32:17;;;;;;;7.40;5.33;;;13.30;91.80;;;;;;4923992;29;20173;-88
2024/04/08 05:34:43;;;;;;;7.63;6.63;;;13.20;91.90;;;;;;4924158;29;20204;-87
2024/04/08 05:37:08;;;;;;;7.63;5.70;;;13.30;92.10;;;;;;4924316;29;20211;-88
2024/04/08 05:39:34;;;;;;;8.20;5.47;;;13.30;92.10;;;;;;4924542;29;20177;-88
2024/04/08 05:42:00;;;;;;;6.93;5.70;;;13.40;92.00;;;;;;4923858;29;20175;-87
2024/04/08 05:44:25;;;;;;;7.35;5.78;;;13.40;91.90;;;;;;4924011;29;20567;-87
2024/04/08 05:46:51;;;;;;;8.50;5.87;;;13.40;91.70;;;;;;4924760;29;20212;-87
2024/04/08 05:49:17;;;;;;;5.70;5.17;;;13.40;91.80;;;;;;4926207;29;20176;-87
2024/04/08 05:51:42;;;;;;;6.20;5.60;;;13.30;91.70;;;;;;4926670;29;20183;-88
2024/04/08 05:54:08;;;;;;;6.97;5.10;;;13.30;91.90;;;;;;4927638;29;20189;-88
2024/04/08 05:56:33;;;;;;;8.10;5.70;;;13.20;91.90;;;;;;4926667;29;20177;-88
2024/04/08 05:58:59;;;;;;;5.50;5.00;;;13.20;91.90;;;;;;4927617;29;20184;-88
2024/04/08 06:01:24;;;;;;;6.55;5.32;;;13.10;92.10;;;;;;4926369;29;20188;-88
2024/04/08 06:03:50;;;;;;;7.93;5.40;;;13.20;92.30;;;;;;4927960;29;20196;-88
2024/04/08 06:06:17;;;;;;;7.70;5.57;;;13.30;92.30;;;;;;4926300;29;20223;-87
2024/04/08 06:08:42;;;;;;;6.40;5.80;;;13.40;92.20;;;;;;4927774;29;20173;-88
2024/04/08 06:11:08;;;;;;;7.40;6.15;;;13.40;92.00;;;;;;4927552;29;20188;-88
2024/04/08 06:13:33;;;;;;;7.30;5.33;;;13.20;91.90;;;;;;4927220;29;20224;-88
2024/04/08 06:15:59;;;;;;;7.65;5.78;;;13.30;92.10;;;;;;4926572;29;20328;-88
2024/04/08 06:18:25;;;;;;;9.60;5.88;;;13.30;92.20;;;;;;4928010;29;20209;-88
2024/04/08 06:20:54;;;;;;;13.25;6.53;;;13.30;92.20;;;;;;4926210;29;20211;-88
2024/04/08 06:23:20;;;;;;;6.63;6.10;;;13.20;92.10;;;;;;4925068;29;20209;-88
2024/04/08 06:25:46;;;;;;;10.47;5.63;;;13.00;92.40;;;;;;4925669;29;20200;-88
2024/04/08 06:28:11;;;;;;;7.23;4.97;;;13.00;92.70;;;;;;4927140;29;20204;-88
2024/04/08 06:30:37;;;;;;;5.37;4.87;;;13.00;93.00;;;;;;4926280;29;20633;-87
2024/04/08 06:33:03;;;;;;;11.83;6.23;;;13.00;93.20;;;;;;4925843;29;20208;-88
2024/04/08 06:35:28;;;;;;;7.37;5.00;;;13.00;93.40;;;;;;4926687;29;20257;-88
2024/04/08 06:37:54;;;;;;;7.23;4.57;;;13.00;93.60;;;;;;4926408;29;20192;-86
2024/04/08 06:40:19;;;;;;;8.17;4.80;;;13.00;93.70;;;;;;4926648;29;20181;-88
2024/04/08 06:42:44;;;;;;;7.63;4.87;;;13.10;93.80;;;;;;4925737;29;20208;-88
2024/04/08 06:45:10;;;;;;;7.27;5.00;;;13.20;93.80;;;;;;4926980;29;20216;-88
2024/04/08 06:47:35;;;;;;;7.60;4.40;;;13.10;93.70;;;;;;4926694;29;20615;-87
2024/04/08 06:50:01;;;;;;;7.70;4.93;;;13.00;93.70;;;;;;4927209;29;20176;-87
2024/04/08 06:52:27;;;;;;;6.33;4.33;;;13.10;93.60;;;;;;4926460;29;20192;-88
2024/04/08 06:54:52;;;;;;;9.67;5.07;;;13.20;93.70;;;;;;4927437;29;20173;-87
2024/04/08 06:57:18;;;;;;;10.73;4.93;;;13.20;93.60;;;;;;4926288;29;20187;-87
2024/04/08 06:59:44;;;;;;;10.10;4.90;;;13.30;93.50;;;;;;4924000;29;20177;-88
2024/04/08 07:02:10;;;;;;;6.78;5.28;;;13.40;93.50;;;;;;4926529;29;20180;-88
2024/04/08 07:04:35;;;;;;;6.15;5.10;;;13.50;93.50;;;;;;4926362;29;20204;-86
2024/04/08 07:07:01;;;;;;;11.32;5.50;;;13.80;93.40;;;;;;4926734;29;20161;-88
2024/04/08 07:09:29;;;;;;;9.57;5.75;;;13.80;92.90;;;;;;4925968;29;20240;-88
2024/04/08 07:11:57;;;;;;;8.40;5.28;;;13.80;92.70;;;;;;4926836;29;20212;-88
2024/04/08 07:14:23;;;;;;;6.32;5.55;;;13.90;92.40;;;;;;4926207;29;20203;-88
2024/04/08 07:16:48;;;;;;;8.55;5.90;;;13.80;92.20;;;;;;4925450;29;20185;-86
2024/04/08 07:19:14;;;;;;;6.97;6.22;;;13.80;92.30;;;;;;4927035;29;20168;-88
2024/04/08 07:21:39;;;;;;;8.05;6.05;;;14.10;92.20;;;;;;4925046;29;20709;-88
2024/04/08 07:24:07;;;;;;;7.22;6.50;;;14.20;91.70;;;;;;4921862;29;20204;-88
2024/04/08 07:26:32;;;;;;;7.03;6.03;;;14.30;91.30;;;;;;4919919;29;20209;-87
2024/04/08 07:28:58;;;;;;;6.78;6.18;;;14.30;91.00;;;;;;4922297;29;20197;-87
2024/04/08 07:31:24;;;;;;;7.63;6.15;;;14.20;90.80;;;;;;4924240;29;20204;-87
2024/04/08 07:33:49;;;;;;;8.88;6.50;;;14.30;91.00;;;;;;4926666;29;20225;-88
2024/04/08 07:37:49;;;;;;;8.23;6.38;;;14.40;91.30;;;;;;5509993;25;20582;-87
2024/04/08 07:40:15;;;;;;;9.57;6.30;;;14.50;91.30;;;;;;5510381;26;20786;-87
2024/04/08 07:42:42;;;;;;;10.05;8.55;;;14.40;91.10;;;;;;5510453;26;20707;-86
2024/04/08 07:45:08;;;;;;;8.70;7.80;;;14.50;90.90;;;;;;5509705;25;20202;-86
2024/04/08 07:47:34;;;;;;;8.32;7.50;;;14.60;90.70;;;;;;5510339;25;20270;-85
2024/04/08 07:49:59;;;;;;;9.30;7.55;;;14.40;90.40;;;;;;5509663;25;20315;-87
2024/04/08 07:52:26;;;;;;;8.75;7.88;;;14.30;90.70;;;;;;5509792;25;20257;-88
2024/04/08 07:54:52;;;;;;;10.15;7.97;;;14.20;90.70;;;;;;5507790;26;20689;-87
2024/04/08 07:57:18;;;;;;;10.20;8.95;;;14.30;91.00;;;;;;5510173;25;20257;-86
2024/04/08 07:59:43;;;;;;;10.70;9.60;;;14.60;90.70;;;;;;5509457;25;20653;-85
2024/04/08 08:02:09;;;;;;;8.88;7.90;;;14.70;89.90;;;;;;5507688;25;20218;-85
2024/04/08 08:04:34;;;;;;;8.80;7.90;;;14.80;89.70;;;;;;5509826;25;20239;-85
2024/04/08 08:07:00;;;;;;;9.50;8.50;;;14.80;89.50;;;;;;5509284;25;20206;-85
2024/04/08 08:09:26;;;;;;;9.25;7.75;;;14.70;89.20;;;;;;5507615;26;20242;-85
2024/04/08 08:11:51;;;;;;;11.48;10.35;;;14.80;89.40;;;;;;5509183;25;20249;-85
2024/04/08 08:14:17;;;;;;;13.88;12.02;;;14.80;89.40;;;;;;5509699;25;20252;-85
2024/04/08 08:16:43;;;;;;;14.20;11.65;;;14.80;89.20;;;;;;5509281;25;20257;-85
2024/04/08 08:19:09;;;;;;;11.93;10.90;;;14.70;89.20;;;;;;5507785;26;20562;-85
2024/04/08 08:21:34;;;;;;;13.07;11.40;;;14.70;89.20;;;;;;5509562;25;20315;-85
2024/04/08 08:24:00;;;;;;;13.07;11.10;;;14.70;89.00;;;;;;5509959;25;20741;-85
2024/04/08 08:26:28;;;;;;;13.27;11.70;;;14.70;89.10;;;;;;5509342;25;20206;-85
2024/04/08 08:28:54;;;;;;;15.35;11.63;;;14.80;89.20;;;;;;5509455;25;20700;-85
2024/04/08 08:31:20;;;;;;;13.23;10.35;;;14.80;89.30;;;;;;5507405;26;20219;-85
2024/04/08 08:33:46;;;;;;;10.88;8.95;;;14.90;88.80;;;;;;5507021;26;20315;-85
2024/04/08 08:36:12;;;;;;;13.38;8.88;;;15.10;89.20;;;;;;5507162;26;20227;-85
2024/04/08 08:38:37;;;;;;;11.68;9.20;;;15.10;89.00;;;;;;5509158;25;20254;-85
2024/04/08 08:41:08;;;;;;;12.67;9.43;;;15.20;88.80;;;;;;5508107;25;20353;-85
2024/04/08 08:43:37;;;;;;;13.50;10.63;;;15.30;88.60;;;;;;5507787;25;20357;-85
2024/04/08 08:46:05;;;;;;;13.00;9.73;;;15.30;88.50;;;;;;5507265;26;20215;-86
2024/04/08 08:48:31;;;;;;;12.75;9.15;;;15.30;89.10;;;;;;5496229;25;20258;-85
2024/04/08 08:50:57;;;;;;;9.43;8.45;;;15.50;89.50;;;;;;5491509;26;20242;-86
2024/04/08 08:53:22;;;;;;;10.40;8.25;;;15.40;88.60;;;;;;5492902;26;20589;-87
2024/04/08 08:55:50;;;;;;;14.75;8.20;;;15.50;88.70;;;;;;5493381;26;20323;-85
2024/04/08 08:58:16;;;;;;;13.15;9.70;;;15.70;88.60;;;;;;5493290;26;20214;-86
2024/04/08 09:00:43;;;;;;;10.70;8.73;;;15.80;88.40;;;;;;5493467;26;20212;-86
2024/04/08 09:03:15;;;;;;;11.95;9.73;;;16.00;87.60;;;;;;5493012;26;20223;-86
2024/04/08 09:05:41;;;;;;;11.10;9.07;;;15.90;87.50;;;;;;5493405;26;20287;-86
2024/04/08 09:08:07;;;;;;;12.77;9.95;;;16.20;87.20;;;;;;5493534;26;20215;-84
2024/04/08 09:10:43;;;;;;;11.88;10.82;;;16.40;86.90;;;;;;5493872;26;20212;-85
2024/04/08 09:13:19;;;;;;;11.52;9.88;;;16.20;84.30;;;;;;5491030;26;20264;-85
2024/04/08 09:15:45;;;;;;;10.70;9.27;;;16.20;85.40;;;;;;5493121;26;20211;-85
2024/04/08 09:18:10;;;;;;;11.90;10.63;;;16.40;85.60;;;;;;5492878;26;20253;-86
2024/04/08 09:20:36;;;;;;;11.60;10.40;;;16.30;83.90;;;;;;5493121;26;20261;-85
2024/04/08 09:23:01;;;;;;;12.13;10.93;;;16.30;84.80;;;;;;5492948;26;20223;-85
2024/04/08 09:25:28;;;;;;;11.60;10.63;;;16.20;83.50;;;;;;5493192;26;20553;-85
2024/04/08 09:27:54;;;;;;;12.95;11.70;;;16.40;83.40;;;;;;5493639;26;20211;-85
2024/04/08 09:30:19;;;;;;;13.82;12.55;;;16.50;83.20;;;;;;5493380;26;20211;-85
2024/04/08 09:32:45;;;;;;;14.10;12.07;;;16.50;82.60;;;;;;5493521;26;20279;-85
2024/04/08 09:35:11;;;;;;;15.05;13.65;;;16.70;83.20;;;;;;5493803;26;20211;-86
2024/04/08 09:37:37;;;;;;;15.25;13.98;;;16.60;81.90;;;;;;5492953;26;20223;-85
2024/04/08 09:40:04;;;;;;;17.95;13.10;;;16.60;81.80;;;;;;5493336;26;20223;-85
2024/04/08 09:42:33;;;;;;;15.60;14.23;;;16.80;82.10;;;;;;5492965;26;20262;-85
2024/04/08 09:45:02;;;;;;;15.43;13.98;;;16.70;80.60;;;;;;5492966;26;20207;-85
2024/04/08 09:47:29;;;;;;;14.43;13.18;;;17.10;82.00;;;;;;5491126;26;20627;-85
2024/04/08 09:49:57;;;;;;;14.95;13.82;;;17.40;80.80;;;;;;5493215;26;20340;-85
2024/04/08 09:52:25;;;;;;;15.10;13.75;;;17.60;79.50;;;;;;5493193;26;20340;-85
2024/04/08 09:54:51;;;;;;;13.38;12.20;;;17.70;80.00;;;;;;5491216;26;20302;-86
2024/04/08 09:57:20;;;;;;;14.38;12.65;;;17.60;80.90;;;;;;5492145;26;20611;-85
2024/04/08 09:59:52;;;;;;;16.85;13.85;;;17.80;80.30;;;;;;5492666;26;20219;-85
2024/04/08 10:02:30;;;;;;;13.90;12.57;;;17.90;78.30;;;;;;5492373;26;20529;-85
2024/04/08 10:05:00;;;;;;;15.25;13.85;;;18.00;80.20;;;;;;5492125;26;20211;-85
2024/04/08 10:07:26;;;;;;;15.13;13.88;;;18.10;77.80;;;;;;5492438;26;20176;-84
2024/04/08 10:09:52;;;;;;;15.55;14.05;;;18.10;77.50;;;;;;5490782;26;20583;-83
2024/04/08 10:12:32;;;;;;;14.15;12.98;;;18.20;78.70;;;;;;5492262;26;20283;-84
2024/04/08 10:15:14;;;;;;;14.15;12.73;;;18.20;79.20;;;;;;5492163;26;20198;-87
2024/04/08 10:17:43;;;;;;;14.23;13.13;;;18.20;78.90;;;;;;5491523;26;20218;-85
2024/04/08 10:20:12;;;;;;;13.70;12.50;;;18.00;76.70;;;;;;5491858;26;20224;-84
2024/04/08 10:22:38;;;;;;;14.50;13.25;;;18.00;79.20;;;;;;5491888;26;20211;-85
2024/04/08 10:25:05;;;;;;;15.95;14.40;;;18.00;77.30;;;;;;5489838;26;20215;-84
2024/04/08 10:27:33;;;;;;;15.57;14.02;;;17.90;76.40;;;;;;5489712;26;20250;-84
2024/04/08 10:29:59;;;;;;;13.77;12.70;;;17.80;77.40;;;;;;5491335;26;20393;-84
2024/04/08 10:32:25;;;;;;;14.38;13.23;;;17.80;78.70;;;;;;5491156;26;20219;-84
2024/04/08 10:34:55;;;;;;;14.95;13.65;;;17.90;78.90;;;;;;5491445;26;20207;-86
2024/04/08 10:37:21;;;;;;;14.80;13.80;;;18.20;77.80;;;;;;5491411;26;20269;-86
2024/04/08 10:39:47;;;;;;;16.38;15.00;;;18.30;76.20;;;;;;5491205;26;20219;-88
2024/04/08 10:42:17;;;;;;;14.68;13.57;;;18.50;74.80;;;;;;5489179;26;20315;-84
2024/04/08 10:44:43;;;;;;;14.90;13.80;;;18.50;75.00;;;;;;5490931;26;20246;-84
2024/04/08 10:47:09;;;;;;;15.52;14.43;;;18.40;75.10;;;;;;5490767;26;20616;-84
2024/04/08 10:49:35;;;;;;;14.50;13.40;;;18.40;75.10;;;;;;5490811;26;20215;-85
2024/04/08 10:52:02;;;;;;;15.45;14.05;;;18.50;75.70;;;;;;5490957;26;20258;-85
2024/04/08 10:54:28;;;;;;;14.82;13.73;;;18.70;74.40;;;;;;5490685;26;20223;-85
2024/04/08 10:56:56;;;;;;;14.93;13.38;;;18.80;75.10;;;;;;5491009;26;20258;-84
2024/04/08 10:59:22;;;;;;;16.52;15.00;;;18.90;73.90;;;;;;5490898;26;20678;-84
2024/04/08 11:01:48;;;;;;;16.02;14.68;;;18.90;73.40;;;;;;5490652;26;20747;-85
2024/04/08 11:04:13;;;;;;;16.55;15.35;;;19.00;73.30;;;;;;5490366;26;20269;-85
2024/04/08 11:06:39;;;;;;;17.27;16.05;;;18.90;71.00;;;;;;5488855;26;20246;-85
2024/04/08 11:09:06;;;;;;;17.17;15.88;;;18.60;71.20;;;;;;5490713;26;20691;-86
2024/04/08 11:11:33;;;;;;;15.75;14.55;;;18.50;71.50;;;;;;5490357;26;20272;-85
2024/04/08 11:13:58;;;;;;;17.45;15.93;;;18.50;73.30;;;;;;5488475;26;20302;-85
2024/04/08 11:16:26;;;;;;;15.05;14.05;;;18.70;72.40;;;;;;5490514;26;20691;-86
2024/04/08 11:18:51;;;;;;;16.15;14.95;;;18.90;74.90;;;;;;5490451;26;20215;-85
2024/04/08 11:21:17;;;;;;;15.45;14.15;;;19.10;73.10;;;;;;5490411;26;20250;-85
2024/04/08 11:23:43;;;;;;;15.70;14.40;;;19.20;74.90;;;;;;5488291;26;20594;-85
2024/04/08 11:26:09;;;;;;;15.40;14.10;;;19.30;72.80;;;;;;5488573;26;20241;-85
2024/04/08 11:28:36;;;;;;;15.60;14.40;;;19.30;74.00;;;;;;5490492;26;20215;-85
2024/04/08 11:31:06;;;;;;;16.80;15.35;;;19.30;73.20;;;;;;5488528;26;20588;-85
2024/04/08 11:33:31;;;;;;;17.13;15.73;;;19.20;71.80;;;;;;5490213;26;20219;-85
2024/04/08 11:35:57;;;;;;;16.08;14.65;;;19.00;72.00;;;;;;5488430;26;20231;-86
2024/04/08 11:38:23;;;;;;;15.82;14.52;;;19.00;73.10;;;;;;5491336;26;20223;-87
2024/04/08 11:40:48;;;;;;;16.52;15.27;;;19.00;73.90;;;;;;5487680;26;20227;-87
2024/04/08 11:43:14;;;;;;;16.33;15.20;;;19.20;72.40;;;;;;5489319;26;20227;-87
2024/04/08 11:45:40;;;;;;;16.42;15.13;;;19.10;71.70;;;;;;5489417;26;20211;-87
2024/04/08 11:48:06;;;;;;;15.55;14.32;;;19.10;72.60;;;;;;5487503;26;20227;-86
2024/04/08 11:50:32;;;;;;;15.05;13.85;;;19.10;72.80;;;;;;5489358;26;20211;-86
2024/04/08 11:52:58;;;;;;;15.68;14.48;;;19.00;74.10;;;;;;5489327;26;20219;-86
2024/04/08 11:55:23;;;;;;;15.52;14.27;;;18.80;72.70;;;;;;5487504;26;20219;-86
2024/04/08 11:57:49;;;;;;;15.57;14.48;;;18.80;73.50;;;;;;5487244;26;20232;-86
2024/04/08 12:00:20;;;;;;;15.80;14.60;;;18.90;73.40;;;;;;5489512;26;20569;-86
2024/04/08 12:02:47;;;;;;;16.30;15.02;;;19.20;72.60;;;;;;5487290;26;20269;-86
2024/04/08 12:05:12;;;;;;;15.75;14.40;;;19.40;71.70;;;;;;5487269;26;20762;-86
2024/04/08 12:07:38;;;;;;;15.68;14.68;;;19.60;72.30;;;;;;5489359;26;20296;-86
2024/04/08 12:10:09;;;;;;;16.48;15.07;;;19.50;71.90;;;;;;5489057;26;20219;-86
2024/04/08 12:12:35;;;;;;;16.10;14.95;;;19.40;71.50;;;;;;5489168;26;20280;-87
2024/04/08 12:15:03;;;;;;;18.30;16.65;;;19.30;72.10;;;;;;5488942;26;20312;-88
2024/04/08 12:17:29;;;;;;;16.23;15.13;;;19.20;70.30;;;;;;5489264;26;20219;-88
2024/04/08 12:19:55;;;;;;;16.85;15.65;;;19.10;72.30;;;;;;5489220;26;20307;-88
2024/04/08 12:22:21;;;;;;;18.25;16.77;;;19.10;71.00;;;;;;5489188;26;20215;-88
2024/04/08 12:24:46;;;;;;;16.30;15.18;;;19.00;70.60;;;;;;5490646;26;20273;-89
2024/04/08 12:27:12;;;;;;;15.65;14.45;;;19.00;72.70;;;;;;5492551;26;20215;-88
2024/04/08 12:29:37;;;;;;;16.95;15.40;;;19.20;72.80;;;;;;5492528;26;20219;-89
2024/04/08 12:32:03;;;;;;;16.75;15.45;;;19.30;72.00;;;;;;5490637;26;20223;-90
2024/04/08 12:34:29;;;;;;;17.80;16.40;;;19.40;70.90;;;;;;5492549;26;20223;-86
2024/04/08 12:36:54;;;;;;;16.52;15.25;;;19.30;70.30;;;;;;5492518;26;20227;-87